Terminal Aerodrome Forecast
Issued by NWS

Home | Current Version | Previous Version | Text Only | Print | Product List | Glossary On
Versions: 1 2 3 4 5 6 7 8 9 10 11 12
000
FTUS45 KABQ 291732
TAFFMN
TAF
KFMN 291732Z 2918/3018 09007KT P6SM VCSH OVC070
     FM291900 21009KT P6SM VCSH OVC060
      TEMPO 2921/2924 VRB15G25KT -TSRA BKN050CB
     FM300300 11005KT P6SM SCT050 SCT080
     FM301000 08007KT P6SM BKN060=

USA.gov is the U.S. government's official web portal to all federal, state and local government web resources and services.